Time;durP1;ratioP1;P1;durP2;ratioP2;P2;SDS_P1;SDS_P2;PMS_P1;PMS_P2;Temp;Humidity;BMP_temperature;BMP_pressure;BME280_temperature;BME280_humidity;BME280_pressure;Samples;Min_cycle;Max_cycle;Signal;HPM_P1;HPM_P2
2023/07/22 00:01:48;;;;;;;6.82;4.80;;;;;;;13.23;86.48;100544.50;7402614;19;20040;-67
2023/07/22 00:04:16;;;;;;;6.03;5.20;;;;;;;13.25;86.49;100545.34;7398383;19;20039;-68
2023/07/22 00:06:45;;;;;;;5.20;4.70;;;;;;;13.27;86.55;100546.13;7397924;19;20022;-68
2023/07/22 00:09:20;;;;;;;4.80;4.40;;;;;;;13.28;86.48;100547.84;7397908;19;20026;-68
2023/07/22 00:11:48;;;;;;;4.90;4.47;;;;;;;13.28;86.47;100540.81;7399800;19;20023;-67
2023/07/22 00:14:17;;;;;;;5.13;4.70;;;;;;;13.31;86.58;100542.47;7397729;19;20014;-68
2023/07/22 00:16:48;;;;;;;5.65;4.55;;;;;;;13.33;86.67;100538.00;7400170;19;20031;-68
2023/07/22 00:19:16;;;;;;;5.63;4.55;;;;;;;13.36;86.51;100535.25;7399760;19;20485;-67
2023/07/22 00:21:45;;;;;;;6.80;4.97;;;;;;;13.38;86.74;100538.72;7399155;19;20026;-67
2023/07/22 00:24:13;;;;;;;5.50;5.00;;;;;;;13.40;86.53;100534.25;7397160;19;20015;-68
2023/07/22 00:26:49;;;;;;;6.35;4.57;;;;;;;13.43;86.48;100536.75;7399800;19;20028;-68
2023/07/22 00:29:18;;;;;;;5.20;4.78;;;;;;;13.45;86.39;100534.09;7397961;19;20066;-68
2023/07/22 00:31:49;;;;;;;5.75;5.22;;;;;;;13.47;86.61;100532.25;7399221;19;20035;-67
2023/07/22 00:34:17;;;;;;;6.20;4.45;;;;;;;13.48;86.58;100542.75;7398217;19;20022;-67
2023/07/22 00:36:47;;;;;;;7.18;5.43;;;;;;;13.50;86.64;100542.69;7397251;19;20015;-67
2023/07/22 00:39:16;;;;;;;6.25;4.72;;;;;;;13.50;86.55;100542.69;7400300;19;20021;-67
2023/07/22 00:41:45;;;;;;;7.18;5.43;;;;;;;13.51;86.41;100550.53;7398897;19;20029;-67
2023/07/22 00:44:14;;;;;;;5.60;5.10;;;;;;;13.52;86.32;100546.09;7399336;19;20015;-67
2023/07/22 00:46:42;;;;;;;6.28;5.38;;;;;;;13.52;86.69;100538.19;7399519;19;20015;-67
2023/07/22 00:49:17;;;;;;;6.32;5.60;;;;;;;13.51;86.58;100540.00;7398775;19;20423;-67
2023/07/22 00:51:45;;;;;;;5.00;4.55;;;;;;;13.51;86.68;100539.16;7398965;19;20032;-67
2023/07/22 00:54:14;;;;;;;6.18;4.97;;;;;;;13.49;86.68;100547.09;7397435;19;20015;-68
2023/07/22 00:56:44;;;;;;;5.88;5.35;;;;;;;13.49;86.61;100547.09;7398470;19;20379;-67
2023/07/22 00:59:12;;;;;;;5.53;4.85;;;;;;;13.48;86.54;100549.78;7396671;19;20022;-67
2023/07/22 01:01:41;;;;;;;5.38;4.88;;;;;;;13.46;86.64;100546.38;7397992;19;20484;-67
2023/07/22 01:04:12;;;;;;;5.75;4.68;;;;;;;13.45;86.73;100544.63;7396516;19;20022;-66
2023/07/22 01:06:41;;;;;;;6.57;5.40;;;;;;;13.44;86.64;100542.91;7396202;19;20014;-67
2023/07/22 01:09:09;;;;;;;6.75;5.65;;;;;;;13.43;86.57;100544.66;7395900;19;20022;-67
2023/07/22 01:11:38;;;;;;;5.75;5.25;;;;;;;13.42;86.78;100545.63;7397728;19;20481;-66
2023/07/22 01:14:07;;;;;;;6.40;5.45;;;;;;;13.42;86.63;100544.72;7394500;19;20014;-66
2023/07/22 01:16:36;;;;;;;5.72;5.22;;;;;;;13.41;86.85;100541.25;7397748;19;20041;-66
2023/07/22 01:19:08;;;;;;;6.78;5.38;;;;;;;13.40;86.96;100544.78;7397745;19;20022;-66
2023/07/22 01:21:39;;;;;;;7.07;5.30;;;;;;;13.41;86.98;100546.53;7397767;19;20366;-66
2023/07/22 01:24:11;;;;;;;7.82;5.55;;;;;;;13.40;86.98;100542.16;7398092;19;20022;-67
2023/07/22 01:26:40;;;;;;;6.43;5.82;;;;;;;13.41;86.86;100540.38;7398379;19;20019;-65
2023/07/22 01:29:08;;;;;;;9.05;5.30;;;;;;;13.41;86.97;100543.00;7395953;19;20011;-66
2023/07/22 01:31:38;;;;;;;5.70;5.07;;;;;;;13.39;87.06;100547.50;7395412;19;20010;-66
2023/07/22 01:34:06;;;;;;;5.80;5.18;;;;;;;13.36;86.91;100544.00;7395619;19;20018;-67
2023/07/22 01:36:35;;;;;;;5.18;4.30;;;;;;;13.35;86.89;100555.47;7397286;19;20014;-67
2023/07/22 01:39:05;;;;;;;5.38;4.88;;;;;;;13.34;86.80;100563.44;7397569;19;20022;-67
2023/07/22 01:41:36;;;;;;;5.40;4.47;;;;;;;13.32;86.98;100570.53;7395692;19;20045;-67
2023/07/22 01:44:05;;;;;;;6.78;4.78;;;;;;;13.28;87.18;100569.78;7397029;19;20485;-67
2023/07/22 01:46:34;;;;;;;5.50;4.10;;;;;;;13.24;87.03;100565.53;7397270;19;20022;-66
2023/07/22 01:49:04;;;;;;;6.53;4.65;;;;;;;13.22;86.98;100558.59;7397370;19;20019;-66
2023/07/22 01:51:33;;;;;;;7.45;4.65;;;;;;;13.19;87.06;100557.81;7397024;19;20033;-66
2023/07/22 01:54:01;;;;;;;5.72;4.50;;;;;;;13.16;87.12;100571.06;7395137;19;20018;-66
2023/07/22 01:56:30;;;;;;;5.38;4.40;;;;;;;13.13;87.19;100572.94;7396913;19;20022;-67
2023/07/22 01:59:01;;;;;;;10.85;4.55;;;;;;;13.10;87.17;100586.25;7394693;19;20039;-66
2023/07/22 02:01:29;;;;;;;5.03;4.28;;;;;;;13.08;87.46;100580.16;7394647;19;20484;-67
2023/07/22 02:03:58;;;;;;;5.47;4.97;;;;;;;13.05;87.31;100581.13;7394648;19;20098;-67
2023/07/22 02:06:26;;;;;;;5.75;4.68;;;;;;;13.03;87.77;100588.25;7396612;19;20018;-66
2023/07/22 02:08:55;;;;;;;5.40;4.90;;;;;;;13.01;87.56;100583.00;7396123;19;20504;-67
2023/07/22 02:11:24;;;;;;;5.10;4.60;;;;;;;12.98;87.47;100588.38;7394273;19;20014;-67
2023/07/22 02:13:52;;;;;;;8.80;4.72;;;;;;;12.99;87.53;100583.97;7395295;19;20486;-67
2023/07/22 02:16:23;;;;;;;5.63;4.60;;;;;;;12.97;87.35;100584.03;7396268;19;20035;-66
2023/07/22 02:18:52;;;;;;;5.03;4.63;;;;;;;12.97;87.45;100588.44;7395849;19;20019;-66
2023/07/22 02:21:20;;;;;;;5.85;4.85;;;;;;;12.98;87.53;100593.66;7396171;19;20023;-67
2023/07/22 02:23:49;;;;;;;5.30;4.72;;;;;;;12.98;87.40;100598.91;7394016;19;20418;-67
2023/07/22 02:26:17;;;;;;;5.32;4.82;;;;;;;12.99;87.34;100594.50;7394930;19;20026;-67
2023/07/22 02:28:46;;;;;;;4.93;4.43;;;;;;;13.01;87.53;100605.84;7393557;19;20010;-67
2023/07/22 02:31:15;;;;;;;6.07;4.32;;;;;;;12.97;87.33;100596.34;7395412;19;20481;-66
2023/07/22 02:33:46;;;;;;;5.65;4.90;;;;;;;13.01;87.29;100605.84;7393462;19;20019;-67
2023/07/22 02:36:15;;;;;;;5.32;4.78;;;;;;;13.02;87.12;100604.94;7396037;19;20015;-67
2023/07/22 02:38:43;;;;;;;4.97;4.53;;;;;;;13.04;87.24;100608.38;7393468;19;20458;-67
2023/07/22 02:41:12;;;;;;;5.00;4.50;;;;;;;13.04;86.99;100616.25;7395317;19;20014;-66
2023/07/22 02:43:40;;;;;;;5.43;4.80;;;;;;;13.04;87.02;100618.91;7393665;19;20041;-67
2023/07/22 02:46:09;;;;;;;5.15;4.30;;;;;;;13.03;86.95;100615.41;7395001;19;20514;-67
2023/07/22 02:48:39;;;;;;;5.30;4.68;;;;;;;13.03;86.99;100628.59;7394920;19;20021;-67
2023/07/22 02:51:12;;;;;;;6.22;4.18;;;;;;;13.00;86.88;100635.72;7395150;19;20014;-67
2023/07/22 02:53:41;;;;;;;5.18;4.28;;;;;;;12.98;86.92;100637.56;7393362;19;20414;-67
2023/07/22 02:56:11;;;;;;;4.40;3.95;;;;;;;12.95;87.02;100627.97;7395028;19;20383;-67
2023/07/22 02:58:41;;;;;;;4.72;4.25;;;;;;;12.93;87.16;100634.19;7395017;19;20018;-67
2023/07/22 03:01:11;;;;;;;4.40;4.00;;;;;;;12.91;87.28;100638.69;7395248;19;20019;-67
2023/07/22 03:03:39;;;;;;;5.65;4.28;;;;;;;12.87;87.10;100633.50;7392689;19;20019;-67
2023/07/22 03:06:11;;;;;;;4.95;4.20;;;;;;;12.84;87.00;100638.88;7394762;19;20018;-67
2023/07/22 03:08:39;;;;;;;5.20;4.10;;;;;;;12.81;87.11;100644.22;7395211;19;20019;-67
2023/07/22 03:11:08;;;;;;;4.43;4.03;;;;;;;12.79;87.21;100651.34;7394404;19;20085;-67
2023/07/22 03:13:36;;;;;;;8.55;4.60;;;;;;;12.78;87.01;100649.59;7392733;19;20377;-67
2023/07/22 03:16:06;;;;;;;8.55;4.45;;;;;;;12.75;87.19;100649.72;7392806;19;20078;-67
2023/07/22 03:18:34;;;;;;;5.32;4.10;;;;;;;12.74;87.08;100652.38;7394430;19;20019;-67
2023/07/22 03:21:03;;;;;;;4.38;3.97;;;;;;;12.70;87.10;100655.13;7394585;19;20078;-67
2023/07/22 03:23:34;;;;;;;6.28;4.78;;;;;;;12.68;87.07;100651.66;7392203;19;20481;-67
2023/07/22 03:26:03;;;;;;;6.20;4.10;;;;;;;12.67;87.06;100663.09;7394821;19;20015;-67
2023/07/22 03:28:38;;;;;;;4.88;4.35;;;;;;;12.65;87.24;100666.69;7392588;19;20010;-67
2023/07/22 03:31:06;;;;;;;6.40;4.35;;;;;;;12.62;87.20;100666.81;7391879;19;20011;-66
2023/07/22 03:33:35;;;;;;;5.28;4.75;;;;;;;12.59;87.29;100664.28;7391795;19;20014;-66
2023/07/22 03:36:03;;;;;;;4.88;4.43;;;;;;;12.56;87.29;100670.47;7393734;19;20385;-66
2023/07/22 03:38:34;;;;;;;4.43;4.03;;;;;;;12.52;87.12;100669.72;7401671;19;20025;-67
2023/07/22 03:41:03;;;;;;;5.80;4.50;;;;;;;12.51;87.26;100675.00;7398157;19;20424;-66
2023/07/22 03:43:31;;;;;;;4.78;4.35;;;;;;;12.49;87.22;100680.34;7398336;19;20014;-66
2023/07/22 03:46:00;;;;;;;5.20;4.78;;;;;;;12.47;87.24;100674.28;7401028;19;20021;-67
2023/07/22 03:48:28;;;;;;;4.82;4.32;;;;;;;12.45;87.24;100678.72;7397946;19;20420;-67
2023/07/22 03:50:56;;;;;;;4.93;4.43;;;;;;;12.44;87.41;100673.50;7401108;19;20078;-67
2023/07/22 03:53:25;;;;;;;5.38;4.88;;;;;;;12.42;87.42;100672.69;7398618;19;20014;-67
2023/07/22 03:55:56;;;;;;;7.22;4.82;;;;;;;12.40;87.37;100678.00;7397967;19;20017;-67
2023/07/22 03:58:24;;;;;;;20.60;14.55;;;;;;;12.38;87.47;100683.31;7400635;19;20541;-68
2023/07/22 04:00:53;;;;;;;6.63;5.38;;;;;;;12.37;87.63;100684.22;7400767;19;20022;-67
2023/07/22 04:03:21;;;;;;;8.00;5.45;;;;;;;12.37;87.72;100685.97;7397850;19;20019;-67
2023/07/22 04:05:56;;;;;;;7.07;5.18;;;;;;;12.37;87.54;100684.22;7399717;19;20350;-67
2023/07/22 04:08:25;;;;;;;6.22;4.70;;;;;;;12.37;87.51;100691.22;7399748;19;20015;-67
2023/07/22 04:10:57;;;;;;;5.60;5.03;;;;;;;12.38;87.74;100685.06;7400225;19;20033;-67
2023/07/22 04:13:27;;;;;;;9.77;5.25;;;;;;;12.38;87.56;100685.94;7398311;19;20497;-67
2023/07/22 04:15:55;;;;;;;6.13;5.15;;;;;;;12.40;87.61;100685.88;7397887;19;20039;-67
2023/07/22 04:18:24;;;;;;;7.28;5.22;;;;;;;12.41;87.59;100687.63;7399667;19;20074;-67
2023/07/22 04:20:58;;;;;;;5.80;5.20;;;;;;;12.42;87.54;100684.06;7400093;19;20097;-67
2023/07/22 04:23:27;;;;;;;6.28;5.20;;;;;;;12.43;87.43;100685.78;7397528;19;20015;-67
2023/07/22 04:25:58;;;;;;;7.80;5.88;;;;;;;12.45;87.67;100686.59;7400068;19;20018;-67
2023/07/22 04:28:26;;;;;;;7.35;5.38;;;;;;;12.47;87.71;100682.16;7398905;19;20357;-67
2023/07/22 04:30:59;;;;;;;6.90;5.93;;;;;;;12.51;87.72;100690.81;7397092;19;20078;-67
2023/07/22 04:33:28;;;;;;;6.83;6.13;;;;;;;12.53;87.89;100687.22;7397675;19;20019;-67
2023/07/22 04:36:00;;;;;;;8.45;6.93;;;;;;;12.55;87.77;100679.28;7397146;19;20464;-67
2023/07/22 04:38:29;;;;;;;8.20;6.30;;;;;;;12.59;87.73;100687.97;7400052;19;20006;-66
2023/07/22 04:41:01;;;;;;;7.20;6.50;;;;;;;12.62;87.88;100685.22;7399072;19;20404;-66
2023/07/22 04:43:30;;;;;;;7.45;6.10;;;;;;;12.66;87.36;100686.84;7396776;19;20512;-66
2023/07/22 04:45:58;;;;;;;6.78;6.00;;;;;;;12.70;87.62;100688.47;7399395;19;20031;-66
2023/07/22 04:48:27;;;;;;;10.75;5.95;;;;;;;12.74;87.62;100700.63;7396227;19;20022;-66
2023/07/22 04:50:55;;;;;;;7.65;6.13;;;;;;;12.78;87.24;100699.63;7396895;19;20025;-68
2023/07/22 04:53:24;;;;;;;9.07;7.05;;;;;;;12.82;87.43;100703.88;7397121;19;20089;-66
2023/07/22 04:55:52;;;;;;;9.43;6.70;;;;;;;12.88;87.28;100711.56;7398083;19;20495;-67
2023/07/22 04:58:24;;;;;;;9.05;6.47;;;;;;;12.93;87.19;100703.53;7400111;19;20025;-67
2023/07/22 05:00:52;;;;;;;16.17;7.30;;;;;;;12.98;86.96;100704.25;7399771;19;20423;-66
2023/07/22 05:03:25;;;;;;;9.57;7.10;;;;;;;13.02;86.85;100708.50;7396797;19;20045;-67
2023/07/22 05:05:53;;;;;;;9.85;6.90;;;;;;;13.08;86.72;100707.47;7399312;19;20025;-66
2023/07/22 05:08:21;;;;;;;8.18;6.50;;;;;;;13.13;86.62;100707.28;7398195;19;20074;-66
2023/07/22 05:10:50;;;;;;;10.25;7.60;;;;;;;13.18;86.14;100722.03;7398156;19;20086;-67
2023/07/22 05:13:19;;;;;;;7.47;6.25;;;;;;;13.24;86.01;100712.22;7396143;19;20015;-67
2023/07/22 05:15:50;;;;;;;10.68;6.68;;;;;;;13.29;85.67;100720.81;7396668;19;20011;-67
2023/07/22 05:18:18;;;;;;;11.02;6.90;;;;;;;13.36;85.52;100722.34;7398358;19;20010;-67
2023/07/22 05:20:46;;;;;;;8.23;6.57;;;;;;;13.41;85.23;100717.81;7396166;19;20022;-68
2023/07/22 05:23:15;;;;;;;8.63;6.20;;;;;;;13.46;85.16;100728.19;7396053;19;20015;-67
2023/07/22 05:25:43;;;;;;;9.88;5.85;;;;;;;13.52;84.84;100726.22;7397293;19;20082;-67
2023/07/22 05:28:18;;;;;;;9.10;6.20;;;;;;;13.58;84.56;100734.81;7396931;19;20654;-67
2023/07/22 05:30:57;;;;;;;12.32;7.43;;;;;;;13.63;84.22;100739.00;7395493;19;20006;-66
2023/07/22 05:33:26;;;;;;;8.30;6.30;;;;;;;13.67;83.86;100737.13;7396011;19;20021;-66
2023/07/22 05:35:54;;;;;;;9.32;7.22;;;;;;;13.71;83.45;100741.41;7395975;19;20022;-67
2023/07/22 05:38:23;;;;;;;8.65;6.40;;;;;;;13.75;83.31;100748.28;7396074;19;20018;-67
2023/07/22 05:40:51;;;;;;;8.68;6.22;;;;;;;13.79;82.98;100752.53;7396950;19;20090;-66
2023/07/22 05:43:20;;;;;;;7.60;6.00;;;;;;;13.83;82.68;100748.84;7395347;19;20373;-67
2023/07/22 05:45:48;;;;;;;10.20;5.45;;;;;;;13.89;82.61;100750.44;7395334;19;20082;-67
2023/07/22 05:48:21;;;;;;;7.40;5.40;;;;;;;13.93;81.92;100761.75;7395045;19;20022;-66
2023/07/22 05:50:50;;;;;;;7.60;5.30;;;;;;;13.96;81.82;100751.06;7394964;19;20520;-68
2023/07/22 05:53:18;;;;;;;7.60;5.90;;;;;;;14.01;81.28;100757.03;7395518;19;20019;-67
2023/07/22 05:55:47;;;;;;;7.95;4.88;;;;;;;14.06;81.21;100763.00;7394861;19;20089;-66
2023/07/22 05:58:19;;;;;;;6.20;4.97;;;;;;;14.11;80.56;100761.06;7396668;19;20010;-66
2023/07/22 06:00:48;;;;;;;10.23;5.30;;;;;;;14.18;80.32;100761.72;7392687;19;20038;-67
2023/07/22 06:03:20;;;;;;;7.75;5.20;;;;;;;14.23;79.96;100764.16;7395080;19;20018;-65
2023/07/22 06:05:49;;;;;;;6.93;5.03;;;;;;;14.28;79.41;100764.84;7395742;19;20018;-66
2023/07/22 06:08:17;;;;;;;7.15;4.70;;;;;;;14.33;79.22;100755.88;7394472;19;20073;-66
2023/07/22 06:10:46;;;;;;;6.53;5.03;;;;;;;14.38;78.17;100770.66;7396213;19;20094;-66
2023/07/22 06:13:15;;;;;;;8.23;5.00;;;;;;;14.40;78.27;100760.91;7394910;19;20018;-67
2023/07/22 06:15:43;;;;;;;7.72;4.95;;;;;;;14.48;77.77;100774.66;7395228;19;20036;-65
2023/07/22 06:18:11;;;;;;;6.70;4.80;;;;;;;14.52;77.16;100778.06;7396275;19;20025;-66
2023/07/22 06:20:43;;;;;;;7.25;4.60;;;;;;;14.54;76.58;100777.09;7395794;19;20018;-66
2023/07/22 06:23:11;;;;;;;5.97;4.22;;;;;;;14.59;76.57;100772.50;7394842;19;20015;-65
2023/07/22 06:25:39;;;;;;;7.55;4.47;;;;;;;14.63;76.28;100774.13;7395955;19;20018;-66
2023/07/22 06:28:08;;;;;;;8.27;4.93;;;;;;;14.69;75.69;100786.25;7395456;19;20014;-65
2023/07/22 06:30:37;;;;;;;10.65;5.47;;;;;;;14.75;74.96;100787.81;7394474;19;20541;-68
2023/07/22 06:33:06;;;;;;;6.45;5.32;;;;;;;14.80;74.39;100776.13;7394606;19;20022;-66
2023/07/22 06:35:34;;;;;;;7.80;4.57;;;;;;;14.88;74.74;100788.19;7394745;19;20559;-68
2023/07/22 06:38:05;;;;;;;7.82;5.47;;;;;;;14.96;74.91;100783.44;7396183;19;20078;-68
2023/07/22 06:40:33;;;;;;;8.65;5.88;;;;;;;15.04;73.80;100784.00;7396288;19;20010;-67
2023/07/22 06:43:02;;;;;;;6.53;4.68;;;;;;;15.12;73.35;100786.34;7393330;19;20019;-67
2023/07/22 06:45:30;;;;;;;8.10;4.65;;;;;;;15.17;73.26;100789.66;7394965;19;20430;-68
2023/07/22 06:47:58;;;;;;;8.55;5.60;;;;;;;15.20;72.49;100767.53;7396193;19;20095;-68
2023/07/22 06:50:27;;;;;;;7.03;4.55;;;;;;;15.25;72.63;100786.69;7393378;19;20018;-67
2023/07/22 06:52:55;;;;;;;5.95;4.63;;;;;;;15.31;72.36;100781.16;7393767;19;20082;-66
2023/07/22 06:55:26;;;;;;;9.05;4.88;;;;;;;15.36;71.25;100791.56;7392538;19;20388;-67
2023/07/22 06:57:59;;;;;;;7.05;4.55;;;;;;;15.38;70.98;100777.34;7395457;19;20090;-65
2023/07/22 07:00:28;;;;;;;9.60;4.32;;;;;;;15.42;70.99;100776.31;7394646;19;20074;-66
2023/07/22 07:02:56;;;;;;;6.95;4.00;;;;;;;15.48;69.88;100780.50;7393647;19;20077;-66
2023/07/22 07:05:24;;;;;;;5.50;3.35;;;;;;;15.55;70.10;100778.44;7394754;19;20021;-66
2023/07/22 07:07:53;;;;;;;5.78;3.97;;;;;;;15.59;68.97;100775.56;7394533;19;20011;-66
2023/07/22 07:10:21;;;;;;;5.68;4.32;;;;;;;15.64;68.62;100775.41;7392356;19;20558;-66
2023/07/22 07:12:52;;;;;;;6.63;3.80;;;;;;;15.68;68.46;100803.44;7399946;19;20422;-66
2023/07/22 07:15:21;;;;;;;5.93;3.40;;;;;;;15.71;67.97;100784.81;7399636;19;20011;-66
2023/07/22 07:17:49;;;;;;;7.63;3.78;;;;;;;15.74;68.08;100787.31;7401810;19;20393;-66
2023/07/22 07:20:18;;;;;;;8.77;3.72;;;;;;;15.76;67.73;100785.47;7401911;19;20024;-66
2023/07/22 07:22:46;;;;;;;5.93;3.40;;;;;;;15.82;65.68;100786.16;7399156;19;20085;-66
2023/07/22 07:25:15;;;;;;;7.60;4.20;;;;;;;15.83;66.30;100780.78;7401880;19;20018;-66
2023/07/22 07:27:43;;;;;;;6.57;3.75;;;;;;;15.88;66.71;100789.38;7400755;19;20074;-66
2023/07/22 07:30:15;;;;;;;8.20;4.00;;;;;;;15.90;65.16;100792.00;7399181;19;20065;-67
2023/07/22 07:32:43;;;;;;;9.15;3.85;;;;;;;15.94;66.13;100789.13;7399443;19;20018;-65
2023/07/22 07:35:12;;;;;;;6.15;3.42;;;;;;;16.00;65.24;100772.13;7400248;19;20011;-66
2023/07/22 07:37:40;;;;;;;4.47;3.42;;;;;;;16.06;65.03;100787.75;7397944;19;20033;-68
2023/07/22 07:40:10;;;;;;;9.52;4.18;;;;;;;16.10;63.76;100781.38;7400320;19;20014;-66
2023/07/22 07:42:38;;;;;;;5.65;4.03;;;;;;;16.17;63.91;100797.00;7399190;19;20025;-66
2023/07/22 07:45:09;;;;;;;7.90;3.80;;;;;;;16.22;63.73;100790.53;7400353;19;20081;-66
2023/07/22 07:47:40;;;;;;;7.32;3.92;;;;;;;16.30;63.63;100787.56;7400846;19;20023;-67
2023/07/22 07:50:09;;;;;;;7.32;3.78;;;;;;;16.39;63.34;100796.88;7400228;19;20011;-67
2023/07/22 07:52:38;;;;;;;5.47;3.63;;;;;;;16.47;63.00;100793.88;7398569;19;20499;-67
2023/07/22 07:55:08;;;;;;;5.35;3.92;;;;;;;16.55;62.48;100812.94;7399750;19;20019;-67
2023/07/22 07:57:36;;;;;;;6.90;4.20;;;;;;;16.59;61.49;100804.78;7400074;19;20022;-67
2023/07/22 08:00:08;;;;;;;8.75;3.60;;;;;;;16.65;61.00;100794.84;7400601;19;20014;-68
2023/07/22 08:02:36;;;;;;;8.25;4.05;;;;;;;16.70;58.60;100814.03;7397283;19;20369;-66
2023/07/22 08:05:08;;;;;;;7.35;3.35;;;;;;;16.76;59.54;100804.00;7400097;19;20093;-68
2023/07/22 08:07:37;;;;;;;5.65;3.50;;;;;;;16.85;59.70;100807.16;7398241;19;20028;-66
2023/07/22 08:10:07;;;;;;;5.85;3.30;;;;;;;16.93;58.64;100802.38;7397813;19;20014;-67
2023/07/22 08:12:37;;;;;;;4.93;3.33;;;;;;;17.01;58.95;100809.94;7398713;19;20078;-66
2023/07/22 08:15:06;;;;;;;9.68;4.22;;;;;;;17.07;57.32;100842.34;7397600;19;20021;-66
2023/07/22 08:17:34;;;;;;;4.20;3.72;;;;;;;17.14;55.59;100842.91;7400148;19;20089;-67
2023/07/22 08:20:05;;;;;;;4.20;3.22;;;;;;;17.19;55.56;100817.03;7399633;19;20108;-65
2023/07/22 08:22:36;;;;;;;6.82;3.42;;;;;;;17.25;56.52;100831.78;7397515;19;20031;-66
2023/07/22 08:25:04;;;;;;;6.15;3.33;;;;;;;17.31;56.94;100815.56;7399882;19;20089;-66
2023/07/22 08:27:33;;;;;;;7.78;4.57;;;;;;;17.36;56.38;100815.34;7399460;19;20019;-66
2023/07/22 08:30:01;;;;;;;7.85;4.30;;;;;;;17.41;56.43;100814.19;7396847;19;20078;-66
2023/07/22 08:32:30;;;;;;;5.72;3.53;;;;;;;17.45;55.45;100827.28;7397678;19;20349;-67
2023/07/22 08:34:58;;;;;;;5.22;3.78;;;;;;;17.52;56.30;100820.75;7399074;19;20019;-67
2023/07/22 08:37:26;;;;;;;5.38;3.20;;;;;;;17.56;55.85;100811.72;7396863;19;20023;-66
2023/07/22 08:39:57;;;;;;;8.23;3.50;;;;;;;17.63;55.73;100809.59;7398750;19;20014;-66
2023/07/22 08:42:28;;;;;;;9.63;3.60;;;;;;;17.73;55.60;100822.34;7398551;19;20024;-66
2023/07/22 08:44:59;;;;;;;4.07;3.15;;;;;;;17.81;54.20;100834.38;7396638;19;20010;-66
2023/07/22 08:47:31;;;;;;;4.85;3.30;;;;;;;17.84;53.09;100828.88;7399574;19;20025;-66
2023/07/22 08:50:03;;;;;;;5.05;3.72;;;;;;;17.90;54.31;100823.28;7398690;19;20082;-66
2023/07/22 08:52:32;;;;;;;7.15;3.83;;;;;;;17.97;54.26;100827.38;7397416;19;20078;-66
2023/07/22 08:55:04;;;;;;;5.82;3.88;;;;;;;18.00;53.13;100829.84;7396590;19;20018;-66
2023/07/22 08:57:33;;;;;;;8.27;3.85;;;;;;;18.05;54.45;100830.47;7396865;19;20021;-66
2023/07/22 09:00:04;;;;;;;4.00;3.17;;;;;;;18.13;54.15;100834.53;7396180;19;20549;-66
2023/07/22 09:02:33;;;;;;;5.78;4.13;;;;;;;18.21;53.59;100845.59;7397813;19;20035;-66
2023/07/22 09:05:02;;;;;;;4.60;3.55;;;;;;;18.27;53.72;100833.81;7397368;19;20549;-66
2023/07/22 09:07:31;;;;;;;6.80;3.92;;;;;;;18.31;52.62;100830.03;7395137;19;20375;-67
2023/07/22 09:10:02;;;;;;;4.80;3.72;;;;;;;18.33;53.52;100829.03;7397921;19;20545;-67
2023/07/22 09:12:39;;;;;;;8.20;3.67;;;;;;;18.33;51.17;100834.34;7397357;19;20074;-67
2023/07/22 09:15:12;;;;;;;4.95;3.28;;;;;;;18.37;52.26;100835.03;7398511;19;20011;-67
2023/07/22 09:17:40;;;;;;;6.43;3.53;;;;;;;18.38;51.44;100831.44;7396270;19;20353;-66
2023/07/22 09:20:13;;;;;;;5.20;3.75;;;;;;;18.44;51.61;100830.25;7395466;19;20082;-67
2023/07/22 09:22:46;;;;;;;7.87;4.07;;;;;;;18.47;49.80;100822.13;7396572;19;20025;-66
2023/07/22 09:25:20;;;;;;;4.95;3.50;;;;;;;18.51;50.01;100831.63;7396121;19;20078;-67
2023/07/22 09:27:53;;;;;;;4.88;3.17;;;;;;;18.55;50.58;100825.22;7398217;19;20018;-67
2023/07/22 09:30:27;;;;;;;4.72;3.75;;;;;;;18.62;50.03;100836.38;7394781;19;20007;-66
2023/07/22 09:32:57;;;;;;;7.28;4.15;;;;;;;18.67;50.60;100839.66;7395863;19;20045;-67
2023/07/22 09:35:30;;;;;;;6.03;3.92;;;;;;;18.70;50.29;100821.75;7395199;19;20082;-66
2023/07/22 09:37:59;;;;;;;5.95;3.60;;;;;;;18.75;50.44;100824.13;7395308;19;20093;-66
2023/07/22 09:40:29;;;;;;;6.85;4.63;;;;;;;18.81;50.05;100828.25;7396311;19;20019;-65
2023/07/22 09:43:04;;;;;;;7.35;4.13;;;;;;;18.79;48.17;100830.13;7394284;19;20010;-67
2023/07/22 09:45:34;;;;;;;6.30;4.05;;;;;;;18.79;48.84;100824.81;7396875;19;20014;-67
2023/07/22 09:48:02;;;;;;;5.18;3.88;;;;;;;18.77;49.36;100826.72;7395803;19;20018;-66
2023/07/22 09:50:30;;;;;;;5.40;3.78;;;;;;;18.79;49.46;100828.34;7397469;19;20014;-66
2023/07/22 09:53:01;;;;;;;6.07;4.20;;;;;;;18.81;49.74;100830.94;7395785;19;20019;-66
2023/07/22 09:55:31;;;;;;;5.85;4.00;;;;;;;18.87;49.52;100831.44;7396419;19;20372;-67
2023/07/22 09:58:05;;;;;;;8.73;3.78;;;;;;;18.98;49.43;100822.91;7395054;19;20018;-65
2023/07/22 10:00:35;;;;;;;3.90;3.10;;;;;;;19.13;48.62;100813.22;7397530;19;20082;-66
2023/07/22 10:03:05;;;;;;;4.88;4.07;;;;;;;19.27;48.57;100816.88;7395095;19;20074;-68
2023/07/22 10:05:37;;;;;;;10.13;4.15;;;;;;;19.42;48.69;100821.31;7396450;19;20015;-66
2023/07/22 10:08:07;;;;;;;5.07;3.70;;;;;;;19.54;47.69;100817.94;7394801;19;20081;-66
2023/07/22 10:10:38;;;;;;;4.53;3.67;;;;;;;19.64;47.33;100815.59;7396393;19;20078;-66
2023/07/22 10:13:09;;;;;;;5.85;3.90;;;;;;;19.66;46.21;100804.84;7395027;19;20096;-66
2023/07/22 10:15:39;;;;;;;6.78;3.47;;;;;;;19.67;47.09;100812.75;7396638;19;20086;-67
2023/07/22 10:18:07;;;;;;;5.63;3.38;;;;;;;19.74;47.02;100807.94;7395322;19;20014;-66
2023/07/22 10:20:37;;;;;;;4.70;3.53;;;;;;;19.82;47.09;100811.00;7396099;19;20081;-67
2023/07/22 10:23:07;;;;;;;3.75;3.33;;;;;;;19.91;46.29;100825.59;7394266;19;20022;-66
2023/07/22 10:25:36;;;;;;;4.97;3.78;;;;;;;20.00;46.64;100819.72;7396793;19;20011;-65
2023/07/22 10:28:05;;;;;;;4.43;3.45;;;;;;;20.07;46.47;100811.34;7393368;19;20014;-65
2023/07/22 10:30:36;;;;;;;4.50;3.58;;;;;;;20.15;45.95;100817.06;7393819;19;20011;-66
2023/07/22 10:33:06;;;;;;;6.47;4.13;;;;;;;20.20;45.73;100819.47;7393396;19;20485;-65
2023/07/22 10:35:44;;;;;;;5.65;3.53;;;;;;;20.15;44.65;100809.09;7395534;19;20025;-66
2023/07/22 10:38:13;;;;;;;4.75;3.55;;;;;;;20.15;45.95;100822.41;7393250;19;20389;-66
2023/07/22 10:40:48;;;;;;;6.32;3.58;;;;;;;20.17;45.72;100816.03;7395111;19;20074;-67
2023/07/22 10:43:17;;;;;;;5.55;4.00;;;;;;;20.25;45.42;100818.22;7393511;19;20086;-67
2023/07/22 10:45:53;;;;;;;4.57;3.50;;;;;;;20.27;43.80;100824.31;7394269;19;20019;-67
2023/07/22 10:48:22;;;;;;;5.60;3.63;;;;;;;20.28;44.23;100807.38;7394795;19;20022;-67
2023/07/22 10:50:52;;;;;;;4.25;3.60;;;;;;;20.34;45.41;100819.47;7392873;19;20022;-67
2023/07/22 10:53:31;;;;;;;4.72;3.70;;;;;;;20.40;44.87;100816.41;7393260;19;20077;-66
2023/07/22 10:56:08;;;;;;;4.15;3.38;;;;;;;20.49;43.55;100809.66;7396025;19;20018;-67
2023/07/22 10:59:03;;;;;;;8.32;4.47;;;;;;;20.51;44.04;100807.78;7393302;19;20022;-67
2023/07/22 11:01:39;;;;;;;5.72;3.60;;;;;;;20.57;43.89;100811.84;7394338;19;20030;-67
2023/07/22 11:04:34;;;;;;;5.53;3.10;;;;;;;20.59;43.15;100815.28;7395152;19;20031;-67
2023/07/22 11:07:07;;;;;;;5.20;3.47;;;;;;;20.60;44.24;100812.50;7394216;19;20496;-67
2023/07/22 11:09:37;;;;;;;4.10;3.20;;;;;;;20.60;43.73;100812.50;7395086;19;20034;-67
2023/07/22 11:12:07;;;;;;;4.25;3.20;;;;;;;20.65;44.42;100804.22;7394379;19;20015;-66
2023/07/22 11:14:44;;;;;;;5.85;3.38;;;;;;;20.75;43.70;100807.19;7395076;19;20081;-67
2023/07/22 11:17:15;;;;;;;4.90;3.80;;;;;;;20.79;43.18;100800.72;7393194;19;20378;-67
2023/07/22 11:19:44;;;;;;;3.60;3.28;;;;;;;20.85;43.50;100788.78;7395792;19;20032;-67
2023/07/22 11:22:14;;;;;;;4.72;3.47;;;;;;;20.85;43.56;100799.47;7392370;19;20025;-66
2023/07/22 11:24:42;;;;;;;4.07;3.33;;;;;;;20.84;42.85;100822.63;7391880;19;20513;-67
2023/07/22 11:27:17;;;;;;;5.03;3.55;;;;;;;20.85;41.90;100794.97;7393999;19;20361;-67
2023/07/22 11:29:46;;;;;;;3.63;2.97;;;;;;;20.88;42.89;100808.13;7392722;19;20492;-67
2023/07/22 11:32:22;;;;;;;4.40;3.33;;;;;;;20.95;41.51;100792.56;7392842;19;20018;-67
2023/07/22 11:34:50;;;;;;;5.35;2.97;;;;;;;21.01;42.59;100783.34;7394315;19;20078;-66
2023/07/22 11:37:20;;;;;;;4.78;3.75;;;;;;;21.05;42.84;100783.00;7392662;19;20010;-65